sensor_id;sensor_type;location;lat;lon;timestamp;temperature;humidity
36444;DHT22;24692;45.642;13.806;2022-12-18T00:01:12;5.70;99.90
36444;DHT22;24692;45.642;13.806;2022-12-18T00:03:38;5.70;99.90
36444;DHT22;24692;45.642;13.806;2022-12-18T00:06:04;5.60;99.90
36444;DHT22;24692;45.642;13.806;2022-12-18T00:08:30;5.50;99.90
36444;DHT22;24692;45.642;13.806;2022-12-18T00:10:55;5.50;99.90
36444;DHT22;24692;45.642;13.806;2022-12-18T00:13:28;5.60;99.90
36444;DHT22;24692;45.642;13.806;2022-12-18T00:15:53;5.50;99.90
36444;DHT22;24692;45.642;13.806;2022-12-18T00:18:19;5.40;99.90
36444;DHT22;24692;45.642;13.806;2022-12-18T00:20:45;5.40;99.90
36444;DHT22;24692;45.642;13.806;2022-12-18T00:23:10;5.40;99.90
36444;DHT22;24692;45.642;13.806;2022-12-18T00:25:36;5.30;99.90
36444;DHT22;24692;45.642;13.806;2022-12-18T00:28:03;5.40;99.90
36444;DHT22;24692;45.642;13.806;2022-12-18T00:30:29;5.30;99.90
36444;DHT22;24692;45.642;13.806;2022-12-18T00:32:55;5.40;99.90
36444;DHT22;24692;45.642;13.806;2022-12-18T00:35:21;5.40;99.90
36444;DHT22;24692;45.642;13.806;2022-12-18T00:37:46;5.50;99.90
36444;DHT22;24692;45.642;13.806;2022-12-18T00:40:12;5.50;99.90
36444;DHT22;24692;45.642;13.806;2022-12-18T00:42:38;5.60;99.90
36444;DHT22;24692;45.642;13.806;2022-12-18T00:45:27;5.50;99.90
36444;DHT22;24692;45.642;13.806;2022-12-18T00:47:53;5.50;99.90
36444;DHT22;24692;45.642;13.806;2022-12-18T00:50:19;5.40;99.90
36444;DHT22;24692;45.642;13.806;2022-12-18T00:52:45;5.40;99.90
36444;DHT22;24692;45.642;13.806;2022-12-18T00:55:11;5.30;99.90
36444;DHT22;24692;45.642;13.806;2022-12-18T00:57:37;5.30;99.90
36444;DHT22;24692;45.642;13.806;2022-12-18T01:00:05;5.30;99.90
36444;DHT22;24692;45.642;13.806;2022-12-18T01:02:31;5.20;99.90
36444;DHT22;24692;45.642;13.806;2022-12-18T01:04:57;5.20;99.90
36444;DHT22;24692;45.642;13.806;2022-12-18T01:07:22;5.40;99.90
36444;DHT22;24692;45.642;13.806;2022-12-18T01:09:48;5.40;99.90
36444;DHT22;24692;45.642;13.806;2022-12-18T01:12:14;5.30;99.90
36444;DHT22;24692;45.642;13.806;2022-12-18T01:14:39;5.30;99.90
36444;DHT22;24692;45.642;13.806;2022-12-18T01:17:05;5.30;99.90
36444;DHT22;24692;45.642;13.806;2022-12-18T01:19:31;5.20;99.90
36444;DHT22;24692;45.642;13.806;2022-12-18T01:21:56;5.20;99.90
36444;DHT22;24692;45.642;13.806;2022-12-18T01:24:22;5.20;99.90
36444;DHT22;24692;45.642;13.806;2022-12-18T01:26:48;5.20;99.90
36444;DHT22;24692;45.642;13.806;2022-12-18T01:29:14;5.20;99.90
36444;DHT22;24692;45.642;13.806;2022-12-18T01:31:39;5.10;99.90
36444;DHT22;24692;45.642;13.806;2022-12-18T01:34:05;5.10;99.90
36444;DHT22;24692;45.642;13.806;2022-12-18T01:36:36;5.20;99.90
36444;DHT22;24692;45.642;13.806;2022-12-18T01:39:05;5.20;99.90
36444;DHT22;24692;45.642;13.806;2022-12-18T01:41:32;5.20;99.90
36444;DHT22;24692;45.642;13.806;2022-12-18T01:50:33;5.20;99.90
36444;DHT22;24692;45.642;13.806;2022-12-18T01:53:11;5.20;99.90
36444;DHT22;24692;45.642;13.806;2022-12-18T01:55:44;5.10;99.90
36444;DHT22;24692;45.642;13.806;2022-12-18T01:58:11;5.00;99.90
36444;DHT22;24692;45.642;13.806;2022-12-18T02:00:37;5.20;99.90
36444;DHT22;24692;45.642;13.806;2022-12-18T02:03:03;5.10;99.90
36444;DHT22;24692;45.642;13.806;2022-12-18T02:05:46;5.20;99.90
36444;DHT22;24692;45.642;13.806;2022-12-18T02:11:07;5.20;99.90
36444;DHT22;24692;45.642;13.806;2022-12-18T02:13:46;5.20;99.90
36444;DHT22;24692;45.642;13.806;2022-12-18T02:19:39;5.10;99.90
36444;DHT22;24692;45.642;13.806;2022-12-18T02:27:36;5.20;99.90
36444;DHT22;24692;45.642;13.806;2022-12-18T02:30:04;5.10;99.90
36444;DHT22;24692;45.642;13.806;2022-12-18T02:32:37;5.00;99.90
36444;DHT22;24692;45.642;13.806;2022-12-18T02:35:06;5.10;99.90
36444;DHT22;24692;45.642;13.806;2022-12-18T02:37:33;5.10;99.90
36444;DHT22;24692;45.642;13.806;2022-12-18T02:40:00;5.00;99.90
36444;DHT22;24692;45.642;13.806;2022-12-18T02:42:28;4.90;99.90
36444;DHT22;24692;45.642;13.806;2022-12-18T02:44:55;4.80;99.90
36444;DHT22;24692;45.642;13.806;2022-12-18T02:47:23;4.90;99.90
36444;DHT22;24692;45.642;13.806;2022-12-18T02:52:51;4.90;99.90
36444;DHT22;24692;45.642;13.806;2022-12-18T02:58:58;4.80;99.90
36444;DHT22;24692;45.642;13.806;2022-12-18T03:03:42;4.80;99.90
36444;DHT22;24692;45.642;13.806;2022-12-18T03:06:14;4.80;99.90
36444;DHT22;24692;45.642;13.806;2022-12-18T03:08:46;4.80;99.90
36444;DHT22;24692;45.642;13.806;2022-12-18T03:11:14;4.90;99.90
36444;DHT22;24692;45.642;13.806;2022-12-18T03:16:12;4.80;99.90
36444;DHT22;24692;45.642;13.806;2022-12-18T03:21:09;4.70;99.90
36444;DHT22;24692;45.642;13.806;2022-12-18T03:23:42;4.70;99.90
36444;DHT22;24692;45.642;13.806;2022-12-18T03:26:13;4.80;99.90
36444;DHT22;24692;45.642;13.806;2022-12-18T03:28:45;4.70;99.90
36444;DHT22;24692;45.642;13.806;2022-12-18T03:31:13;4.70;99.90
36444;DHT22;24692;45.642;13.806;2022-12-18T03:33:58;4.70;99.90
36444;DHT22;24692;45.642;13.806;2022-12-18T03:36:25;4.60;99.90
36444;DHT22;24692;45.642;13.806;2022-12-18T03:38:51;4.60;99.90
36444;DHT22;24692;45.642;13.806;2022-12-18T03:41:33;4.50;99.90
36444;DHT22;24692;45.642;13.806;2022-12-18T03:49:24;4.60;99.90
36444;DHT22;24692;45.642;13.806;2022-12-18T03:52:10;4.60;99.90
36444;DHT22;24692;45.642;13.806;2022-12-18T03:54:37;4.60;99.90
36444;DHT22;24692;45.642;13.806;2022-12-18T03:57:14;4.60;99.90
36444;DHT22;24692;45.642;13.806;2022-12-18T03:59:43;4.60;99.90
36444;DHT22;24692;45.642;13.806;2022-12-18T04:02:10;4.60;99.90
36444;DHT22;24692;45.642;13.806;2022-12-18T04:04:38;4.60;99.90
36444;DHT22;24692;45.642;13.806;2022-12-18T04:07:05;4.60;99.90
36444;DHT22;24692;45.642;13.806;2022-12-18T04:09:33;4.60;99.90
36444;DHT22;24692;45.642;13.806;2022-12-18T04:12:00;4.60;99.90
36444;DHT22;24692;45.642;13.806;2022-12-18T04:14:26;4.50;99.90
36444;DHT22;24692;45.642;13.806;2022-12-18T04:16:51;4.60;99.90
36444;DHT22;24692;45.642;13.806;2022-12-18T04:19:17;4.60;99.90
36444;DHT22;24692;45.642;13.806;2022-12-18T04:21:43;4.70;99.90
36444;DHT22;24692;45.642;13.806;2022-12-18T04:24:08;4.60;99.90
36444;DHT22;24692;45.642;13.806;2022-12-18T04:26:34;4.60;99.90
36444;DHT22;24692;45.642;13.806;2022-12-18T04:29:00;4.60;99.90
36444;DHT22;24692;45.642;13.806;2022-12-18T04:31:26;4.60;99.90
36444;DHT22;24692;45.642;13.806;2022-12-18T04:33:51;4.60;99.90
36444;DHT22;24692;45.642;13.806;2022-12-18T04:36:17;4.70;99.90
36444;DHT22;24692;45.642;13.806;2022-12-18T04:38:43;4.70;99.90
36444;DHT22;24692;45.642;13.806;2022-12-18T04:41:09;4.70;99.90
36444;DHT22;24692;45.642;13.806;2022-12-18T04:43:34;4.70;99.90
36444;DHT22;24692;45.642;13.806;2022-12-18T04:46:04;4.60;99.90
36444;DHT22;24692;45.642;13.806;2022-12-18T04:48:30;4.70;99.90
36444;DHT22;24692;45.642;13.806;2022-12-18T04:50:56;4.60;99.90
36444;DHT22;24692;45.642;13.806;2022-12-18T04:53:22;4.60;99.90
36444;DHT22;24692;45.642;13.806;2022-12-18T04:55:47;4.60;99.90
36444;DHT22;24692;45.642;13.806;2022-12-18T04:58:13;4.60;99.90
36444;DHT22;24692;45.642;13.806;2022-12-18T05:00:39;4.60;99.90
36444;DHT22;24692;45.642;13.806;2022-12-18T05:03:04;4.60;99.90
36444;DHT22;24692;45.642;13.806;2022-12-18T05:05:30;4.60;99.90
36444;DHT22;24692;45.642;13.806;2022-12-18T05:07:56;4.60;99.90
36444;DHT22;24692;45.642;13.806;2022-12-18T05:10:22;4.50;99.90
36444;DHT22;24692;45.642;13.806;2022-12-18T05:12:47;4.50;99.90
36444;DHT22;24692;45.642;13.806;2022-12-18T05:15:29;4.60;99.90
36444;DHT22;24692;45.642;13.806;2022-12-18T05:17:57;4.60;99.90
36444;DHT22;24692;45.642;13.806;2022-12-18T05:20:23;4.60;99.90
36444;DHT22;24692;45.642;13.806;2022-12-18T05:22:49;4.60;99.90
36444;DHT22;24692;45.642;13.806;2022-12-18T05:25:15;4.60;99.90
36444;DHT22;24692;45.642;13.806;2022-12-18T05:27:41;4.60;99.90
36444;DHT22;24692;45.642;13.806;2022-12-18T05:30:07;4.70;99.90
36444;DHT22;24692;45.642;13.806;2022-12-18T05:32:33;4.60;99.90
36444;DHT22;24692;45.642;13.806;2022-12-18T05:34:59;4.60;99.90
36444;DHT22;24692;45.642;13.806;2022-12-18T05:37:25;4.60;99.90
36444;DHT22;24692;45.642;13.806;2022-12-18T05:39:50;4.60;99.90
36444;DHT22;24692;45.642;13.806;2022-12-18T05:42:16;4.50;99.90
36444;DHT22;24692;45.642;13.806;2022-12-18T05:44:42;4.60;99.90
36444;DHT22;24692;45.642;13.806;2022-12-18T05:47:08;4.50;99.90
36444;DHT22;24692;45.642;13.806;2022-12-18T05:49:34;4.50;99.90
36444;DHT22;24692;45.642;13.806;2022-12-18T05:51:59;4.50;99.90
36444;DHT22;24692;45.642;13.806;2022-12-18T05:54:27;4.40;99.90
36444;DHT22;24692;45.642;13.806;2022-12-18T05:56:53;4.40;99.90
36444;DHT22;24692;45.642;13.806;2022-12-18T05:59:19;4.40;99.90
36444;DHT22;24692;45.642;13.806;2022-12-18T06:01:45;4.50;99.90
36444;DHT22;24692;45.642;13.806;2022-12-18T06:04:11;4.60;99.90
36444;DHT22;24692;45.642;13.806;2022-12-18T06:06:37;4.50;99.90
36444;DHT22;24692;45.642;13.806;2022-12-18T06:09:03;4.50;99.90
36444;DHT22;24692;45.642;13.806;2022-12-18T06:11:34;4.40;99.90
36444;DHT22;24692;45.642;13.806;2022-12-18T06:14:00;4.50;99.90
36444;DHT22;24692;45.642;13.806;2022-12-18T06:16:27;4.40;99.90
36444;DHT22;24692;45.642;13.806;2022-12-18T06:18:53;4.40;99.90
36444;DHT22;24692;45.642;13.806;2022-12-18T06:21:18;4.40;99.90
36444;DHT22;24692;45.642;13.806;2022-12-18T06:23:45;4.50;99.90
36444;DHT22;24692;45.642;13.806;2022-12-18T06:26:11;4.50;99.90
36444;DHT22;24692;45.642;13.806;2022-12-18T06:28:38;4.50;99.90
36444;DHT22;24692;45.642;13.806;2022-12-18T06:31:04;4.50;99.90
36444;DHT22;24692;45.642;13.806;2022-12-18T06:33:30;4.50;99.90
36444;DHT22;24692;45.642;13.806;2022-12-18T06:36:04;4.60;99.90
36444;DHT22;24692;45.642;13.806;2022-12-18T06:38:32;4.60;99.90
36444;DHT22;24692;45.642;13.806;2022-12-18T06:40:58;4.70;99.90
36444;DHT22;24692;45.642;13.806;2022-12-18T06:43:23;4.50;99.90
36444;DHT22;24692;45.642;13.806;2022-12-18T06:45:49;4.50;99.90
36444;DHT22;24692;45.642;13.806;2022-12-18T06:48:19;4.50;99.90
36444;DHT22;24692;45.642;13.806;2022-12-18T06:50:45;4.60;99.90
36444;DHT22;24692;45.642;13.806;2022-12-18T06:53:10;4.50;99.90
36444;DHT22;24692;45.642;13.806;2022-12-18T06:55:36;4.60;99.90
36444;DHT22;24692;45.642;13.806;2022-12-18T06:58:02;4.50;99.90
36444;DHT22;24692;45.642;13.806;2022-12-18T07:00:28;4.60;99.90
36444;DHT22;24692;45.642;13.806;2022-12-18T07:02:53;4.60;99.90
36444;DHT22;24692;45.642;13.806;2022-12-18T07:05:19;4.60;99.90
36444;DHT22;24692;45.642;13.806;2022-12-18T07:07:45;4.60;99.90
36444;DHT22;24692;45.642;13.806;2022-12-18T07:10:10;4.60;99.90
36444;DHT22;24692;45.642;13.806;2022-12-18T07:12:36;4.50;99.90
36444;DHT22;24692;45.642;13.806;2022-12-18T07:15:02;4.50;99.90
36444;DHT22;24692;45.642;13.806;2022-12-18T07:17:28;4.50;99.90
36444;DHT22;24692;45.642;13.806;2022-12-18T07:19:54;4.60;99.90
36444;DHT22;24692;45.642;13.806;2022-12-18T07:22:20;4.60;99.90
36444;DHT22;24692;45.642;13.806;2022-12-18T07:24:49;4.60;99.90
36444;DHT22;24692;45.642;13.806;2022-12-18T07:27:15;4.50;99.90
36444;DHT22;24692;45.642;13.806;2022-12-18T07:29:40;4.40;99.90
36444;DHT22;24692;45.642;13.806;2022-12-18T07:32:06;4.50;99.90
36444;DHT22;24692;45.642;13.806;2022-12-18T07:34:32;4.50;99.90
36444;DHT22;24692;45.642;13.806;2022-12-18T07:36:58;4.60;99.90
36444;DHT22;24692;45.642;13.806;2022-12-18T07:39:24;4.70;99.90
36444;DHT22;24692;45.642;13.806;2022-12-18T07:41:49;4.70;99.90
36444;DHT22;24692;45.642;13.806;2022-12-18T07:44:35;4.80;99.90
36444;DHT22;24692;45.642;13.806;2022-12-18T07:47:01;4.90;99.90
36444;DHT22;24692;45.642;13.806;2022-12-18T07:49:28;4.90;99.90
36444;DHT22;24692;45.642;13.806;2022-12-18T07:51:55;4.90;99.90
36444;DHT22;24692;45.642;13.806;2022-12-18T07:54:22;5.00;99.90
36444;DHT22;24692;45.642;13.806;2022-12-18T07:56:48;5.60;99.90
36444;DHT22;24692;45.642;13.806;2022-12-18T07:59:14;6.90;99.90
36444;DHT22;24692;45.642;13.806;2022-12-18T08:01:40;8.00;99.90
36444;DHT22;24692;45.642;13.806;2022-12-18T08:04:05;8.70;99.90
36444;DHT22;24692;45.642;13.806;2022-12-18T08:06:31;9.00;99.90
36444;DHT22;24692;45.642;13.806;2022-12-18T08:08:57;9.50;99.90
36444;DHT22;24692;45.642;13.806;2022-12-18T08:11:26;9.90;99.90
36444;DHT22;24692;45.642;13.806;2022-12-18T08:13:52;10.20;99.90
36444;DHT22;24692;45.642;13.806;2022-12-18T08:16:19;10.40;99.90
36444;DHT22;24692;45.642;13.806;2022-12-18T08:18:45;11.00;99.90
36444;DHT22;24692;45.642;13.806;2022-12-18T08:21:17;11.20;99.90
36444;DHT22;24692;45.642;13.806;2022-12-18T08:23:44;11.60;99.90
36444;DHT22;24692;45.642;13.806;2022-12-18T08:26:13;11.20;99.90
36444;DHT22;24692;45.642;13.806;2022-12-18T08:28:39;11.20;99.90
36444;DHT22;24692;45.642;13.806;2022-12-18T08:31:05;11.10;99.90
36444;DHT22;24692;45.642;13.806;2022-12-18T08:33:31;10.30;99.90
36444;DHT22;24692;45.642;13.806;2022-12-18T08:35:58;10.80;99.90
36444;DHT22;24692;45.642;13.806;2022-12-18T08:38:24;11.00;99.90
36444;DHT22;24692;45.642;13.806;2022-12-18T08:41:04;11.00;99.90
36444;DHT22;24692;45.642;13.806;2022-12-18T08:43:30;11.80;99.90
36444;DHT22;24692;45.642;13.806;2022-12-18T08:46:14;12.40;99.90
36444;DHT22;24692;45.642;13.806;2022-12-18T08:48:40;12.60;99.90
36444;DHT22;24692;45.642;13.806;2022-12-18T08:51:06;12.90;99.90
36444;DHT22;24692;45.642;13.806;2022-12-18T08:53:32;12.30;99.90
36444;DHT22;24692;45.642;13.806;2022-12-18T08:55:57;12.30;99.90
36444;DHT22;24692;45.642;13.806;2022-12-18T08:58:23;12.00;99.90
36444;DHT22;24692;45.642;13.806;2022-12-18T09:00:49;12.90;99.90
36444;DHT22;24692;45.642;13.806;2022-12-18T09:03:18;12.70;99.90
36444;DHT22;24692;45.642;13.806;2022-12-18T09:05:46;12.70;99.90
36444;DHT22;24692;45.642;13.806;2022-12-18T09:08:12;13.10;99.90
36444;DHT22;24692;45.642;13.806;2022-12-18T09:10:42;12.70;99.90
36444;DHT22;24692;45.642;13.806;2022-12-18T09:13:12;12.30;99.90
36444;DHT22;24692;45.642;13.806;2022-12-18T09:15:49;12.40;99.90
36444;DHT22;24692;45.642;13.806;2022-12-18T09:18:17;11.70;99.90
36444;DHT22;24692;45.642;13.806;2022-12-18T09:20:43;11.80;99.90
36444;DHT22;24692;45.642;13.806;2022-12-18T09:23:09;11.50;99.90
36444;DHT22;24692;45.642;13.806;2022-12-18T09:25:36;11.80;99.90
36444;DHT22;24692;45.642;13.806;2022-12-18T09:28:04;11.90;99.90
36444;DHT22;24692;45.642;13.806;2022-12-18T09:30:30;12.30;99.90
36444;DHT22;24692;45.642;13.806;2022-12-18T09:32:56;12.10;99.90
36444;DHT22;24692;45.642;13.806;2022-12-18T09:35:21;11.70;99.90
36444;DHT22;24692;45.642;13.806;2022-12-18T09:37:47;12.00;99.90
36444;DHT22;24692;45.642;13.806;2022-12-18T09:40:16;12.10;99.90
36444;DHT22;24692;45.642;13.806;2022-12-18T09:42:46;12.90;99.90
36444;DHT22;24692;45.642;13.806;2022-12-18T09:45:15;12.80;99.90
36444;DHT22;24692;45.642;13.806;2022-12-18T09:47:41;12.70;99.90
36444;DHT22;24692;45.642;13.806;2022-12-18T09:50:29;13.40;99.90
36444;DHT22;24692;45.642;13.806;2022-12-18T09:52:59;13.70;99.90
36444;DHT22;24692;45.642;13.806;2022-12-18T10:00:54;13.10;99.90
36444;DHT22;24692;45.642;13.806;2022-12-18T10:03:21;12.70;99.90
36444;DHT22;24692;45.642;13.806;2022-12-18T10:06:05;12.60;99.90
36444;DHT22;24692;45.642;13.806;2022-12-18T10:08:34;12.40;99.90
36444;DHT22;24692;45.642;13.806;2022-12-18T10:11:25;13.00;99.90
36444;DHT22;24692;45.642;13.806;2022-12-18T10:14:00;14.00;99.90
36444;DHT22;24692;45.642;13.806;2022-12-18T10:27:39;13.40;99.90
36444;DHT22;24692;45.642;13.806;2022-12-18T10:30:21;13.50;99.90
36444;DHT22;24692;45.642;13.806;2022-12-18T10:32:47;13.20;99.90
36444;DHT22;24692;45.642;13.806;2022-12-18T10:35:26;13.10;99.90
36444;DHT22;24692;45.642;13.806;2022-12-18T10:38:20;12.40;99.90
36444;DHT22;24692;45.642;13.806;2022-12-18T10:41:03;12.40;99.90
36444;DHT22;24692;45.642;13.806;2022-12-18T10:43:38;12.50;99.90
36444;DHT22;24692;45.642;13.806;2022-12-18T10:51:06;13.30;99.90
36444;DHT22;24692;45.642;13.806;2022-12-18T10:53:34;13.00;99.90
36444;DHT22;24692;45.642;13.806;2022-12-18T10:56:03;13.00;99.90
36444;DHT22;24692;45.642;13.806;2022-12-18T11:06:18;13.30;99.90
36444;DHT22;24692;45.642;13.806;2022-12-18T11:09:00;14.00;99.90
36444;DHT22;24692;45.642;13.806;2022-12-18T11:11:27;12.90;99.90
36444;DHT22;24692;45.642;13.806;2022-12-18T11:14:01;12.70;99.90
36444;DHT22;24692;45.642;13.806;2022-12-18T11:16:28;12.80;99.90
36444;DHT22;24692;45.642;13.806;2022-12-18T11:21:53;13.50;99.90
36444;DHT22;24692;45.642;13.806;2022-12-18T11:24:33;14.20;99.90
36444;DHT22;24692;45.642;13.806;2022-12-18T11:27:05;13.30;99.90
36444;DHT22;24692;45.642;13.806;2022-12-18T11:29:34;13.70;99.90
36444;DHT22;24692;45.642;13.806;2022-12-18T11:32:31;13.40;99.90
36444;DHT22;24692;45.642;13.806;2022-12-18T11:37:41;13.20;99.90
36444;DHT22;24692;45.642;13.806;2022-12-18T11:40:20;13.10;99.90
36444;DHT22;24692;45.642;13.806;2022-12-18T11:42:54;13.30;99.90
36444;DHT22;24692;45.642;13.806;2022-12-18T11:45:27;13.30;99.90
36444;DHT22;24692;45.642;13.806;2022-12-18T11:48:06;13.30;99.90
36444;DHT22;24692;45.642;13.806;2022-12-18T11:50:53;13.10;99.90
36444;DHT22;24692;45.642;13.806;2022-12-18T11:53:21;13.90;99.90
36444;DHT22;24692;45.642;13.806;2022-12-18T12:01:12;14.80;99.90
36444;DHT22;24692;45.642;13.806;2022-12-18T12:09:37;13.70;99.90
36444;DHT22;24692;45.642;13.806;2022-12-18T12:20:57;14.30;99.90
36444;DHT22;24692;45.642;13.806;2022-12-18T12:29:20;14.10;99.90
36444;DHT22;24692;45.642;13.806;2022-12-18T12:32:12;14.10;99.90
36444;DHT22;24692;45.642;13.806;2022-12-18T12:37:51;14.80;99.90
36444;DHT22;24692;45.642;13.806;2022-12-18T12:40:24;15.10;99.90
36444;DHT22;24692;45.642;13.806;2022-12-18T12:42:55;14.80;99.90
36444;DHT22;24692;45.642;13.806;2022-12-18T12:45:58;14.60;99.90
36444;DHT22;24692;45.642;13.806;2022-12-18T12:48:47;15.00;99.90
36444;DHT22;24692;45.642;13.806;2022-12-18T12:51:21;14.80;99.90
36444;DHT22;24692;45.642;13.806;2022-12-18T12:53:48;14.90;99.90
36444;DHT22;24692;45.642;13.806;2022-12-18T12:56:17;14.90;99.90
36444;DHT22;24692;45.642;13.806;2022-12-18T13:09:33;15.60;99.90
36444;DHT22;24692;45.642;13.806;2022-12-18T13:12:10;15.90;99.90
36444;DHT22;24692;45.642;13.806;2022-12-18T13:15:13;15.60;99.90
36444;DHT22;24692;45.642;13.806;2022-12-18T13:17:46;15.60;99.90
36444;DHT22;24692;45.642;13.806;2022-12-18T13:20:13;15.80;99.90
36444;DHT22;24692;45.642;13.806;2022-12-18T13:22:47;15.70;99.90
36444;DHT22;24692;45.642;13.806;2022-12-18T13:28:10;14.90;99.90
36444;DHT22;24692;45.642;13.806;2022-12-18T13:30:50;15.00;99.90
36444;DHT22;24692;45.642;13.806;2022-12-18T13:41:24;15.40;99.90
36444;DHT22;24692;45.642;13.806;2022-12-18T13:43:54;14.90;99.90
36444;DHT22;24692;45.642;13.806;2022-12-18T13:46:28;14.60;99.90
36444;DHT22;24692;45.642;13.806;2022-12-18T13:49:05;14.80;99.90
36444;DHT22;24692;45.642;13.806;2022-12-18T13:51:33;14.20;99.90
36444;DHT22;24692;45.642;13.806;2022-12-18T13:54:10;14.20;99.90
36444;DHT22;24692;45.642;13.806;2022-12-18T13:56:46;14.10;99.90
36444;DHT22;24692;45.642;13.806;2022-12-18T13:59:54;13.40;99.90
36444;DHT22;24692;45.642;13.806;2022-12-18T14:02:14;13.80;99.90
36444;DHT22;24692;45.642;13.806;2022-12-18T14:04:40;13.80;99.90
36444;DHT22;24692;45.642;13.806;2022-12-18T14:07:15;13.50;99.90
36444;DHT22;24692;45.642;13.806;2022-12-18T14:09:45;13.60;99.90
36444;DHT22;24692;45.642;13.806;2022-12-18T14:12:32;13.30;99.90
36444;DHT22;24692;45.642;13.806;2022-12-18T14:17:55;12.70;99.90
36444;DHT22;24692;45.642;13.806;2022-12-18T14:20:22;12.80;99.90
36444;DHT22;24692;45.642;13.806;2022-12-18T14:22:49;12.60;99.90
36444;DHT22;24692;45.642;13.806;2022-12-18T14:28:12;12.60;99.90
36444;DHT22;24692;45.642;13.806;2022-12-18T14:30:52;12.60;99.90
36444;DHT22;24692;45.642;13.806;2022-12-18T14:33:24;12.30;99.90
36444;DHT22;24692;45.642;13.806;2022-12-18T14:35:59;12.30;99.90
36444;DHT22;24692;45.642;13.806;2022-12-18T14:38:30;11.40;99.90
36444;DHT22;24692;45.642;13.806;2022-12-18T14:40:57;11.30;99.90
36444;DHT22;24692;45.642;13.806;2022-12-18T14:43:23;11.00;99.90
36444;DHT22;24692;45.642;13.806;2022-12-18T14:45:50;10.40;99.90
36444;DHT22;24692;45.642;13.806;2022-12-18T14:50:43;11.00;99.90
36444;DHT22;24692;45.642;13.806;2022-12-18T14:53:26;10.90;99.90
36444;DHT22;24692;45.642;13.806;2022-12-18T14:55:54;10.60;99.90
36444;DHT22;24692;45.642;13.806;2022-12-18T14:58:20;10.60;99.90
36444;DHT22;24692;45.642;13.806;2022-12-18T15:00:45;10.30;99.90
36444;DHT22;24692;45.642;13.806;2022-12-18T15:03:17;10.20;99.90
36444;DHT22;24692;45.642;13.806;2022-12-18T15:05:44;10.00;99.90
36444;DHT22;24692;45.642;13.806;2022-12-18T15:08:39;9.70;99.90
36444;DHT22;24692;45.642;13.806;2022-12-18T15:11:29;9.20;99.90
36444;DHT22;24692;45.642;13.806;2022-12-18T15:13:58;8.80;99.90
36444;DHT22;24692;45.642;13.806;2022-12-18T15:16:24;8.60;99.90
36444;DHT22;24692;45.642;13.806;2022-12-18T15:18:50;8.50;99.90
36444;DHT22;24692;45.642;13.806;2022-12-18T15:21:18;8.10;99.90
36444;DHT22;24692;45.642;13.806;2022-12-18T15:26:12;7.80;99.90
36444;DHT22;24692;45.642;13.806;2022-12-18T15:28:46;7.40;99.90
36444;DHT22;24692;45.642;13.806;2022-12-18T15:33:43;7.10;99.90
36444;DHT22;24692;45.642;13.806;2022-12-18T15:36:16;7.10;99.90
36444;DHT22;24692;45.642;13.806;2022-12-18T15:38:49;6.70;99.90
36444;DHT22;24692;45.642;13.806;2022-12-18T15:41:17;6.60;99.90
36444;DHT22;24692;45.642;13.806;2022-12-18T15:43:44;6.60;99.90
36444;DHT22;24692;45.642;13.806;2022-12-18T15:46:23;6.60;99.90
36444;DHT22;24692;45.642;13.806;2022-12-18T15:48:52;6.50;99.90
36444;DHT22;24692;45.642;13.806;2022-12-18T15:51:19;6.40;99.90
36444;DHT22;24692;45.642;13.806;2022-12-18T15:53:50;6.40;99.90
36444;DHT22;24692;45.642;13.806;2022-12-18T15:56:17;6.30;99.90
36444;DHT22;24692;45.642;13.806;2022-12-18T15:59:02;6.30;99.90
36444;DHT22;24692;45.642;13.806;2022-12-18T16:01:30;6.40;99.90
36444;DHT22;24692;45.642;13.806;2022-12-18T16:03:56;6.40;99.90
36444;DHT22;24692;45.642;13.806;2022-12-18T16:06:23;6.40;99.90
36444;DHT22;24692;45.642;13.806;2022-12-18T16:08:48;6.40;99.90
36444;DHT22;24692;45.642;13.806;2022-12-18T16:11:22;6.30;99.90
36444;DHT22;24692;45.642;13.806;2022-12-18T16:14:05;6.20;99.90
36444;DHT22;24692;45.642;13.806;2022-12-18T16:16:31;6.10;99.90
36444;DHT22;24692;45.642;13.806;2022-12-18T16:18:56;6.00;99.90
36444;DHT22;24692;45.642;13.806;2022-12-18T16:21:22;6.00;99.90
36444;DHT22;24692;45.642;13.806;2022-12-18T16:23:48;5.90;99.90
36444;DHT22;24692;45.642;13.806;2022-12-18T16:26:13;5.80;99.90
36444;DHT22;24692;45.642;13.806;2022-12-18T16:28:39;5.80;99.90
36444;DHT22;24692;45.642;13.806;2022-12-18T16:31:05;5.80;99.90
36444;DHT22;24692;45.642;13.806;2022-12-18T16:33:30;5.80;99.90
36444;DHT22;24692;45.642;13.806;2022-12-18T16:35:56;5.80;99.90
36444;DHT22;24692;45.642;13.806;2022-12-18T16:38:22;5.80;99.90
36444;DHT22;24692;45.642;13.806;2022-12-18T16:40:47;5.60;99.90
36444;DHT22;24692;45.642;13.806;2022-12-18T16:43:31;5.50;99.90
36444;DHT22;24692;45.642;13.806;2022-12-18T16:45:58;5.60;99.90
36444;DHT22;24692;45.642;13.806;2022-12-18T16:48:24;5.50;99.90
36444;DHT22;24692;45.642;13.806;2022-12-18T16:50:51;5.50;99.90
36444;DHT22;24692;45.642;13.806;2022-12-18T16:53:24;5.50;99.90
36444;DHT22;24692;45.642;13.806;2022-12-18T16:55:54;5.50;99.90
36444;DHT22;24692;45.642;13.806;2022-12-18T16:58:20;5.50;99.90
36444;DHT22;24692;45.642;13.806;2022-12-18T17:00:46;5.50;99.90
36444;DHT22;24692;45.642;13.806;2022-12-18T17:03:12;5.50;99.90
36444;DHT22;24692;45.642;13.806;2022-12-18T17:05:38;5.40;99.90
36444;DHT22;24692;45.642;13.806;2022-12-18T17:08:03;5.50;99.90
36444;DHT22;24692;45.642;13.806;2022-12-18T17:10:29;5.50;99.90
36444;DHT22;24692;45.642;13.806;2022-12-18T17:12:55;5.40;99.90
36444;DHT22;24692;45.642;13.806;2022-12-18T17:15:20;5.50;99.90
36444;DHT22;24692;45.642;13.806;2022-12-18T17:17:46;5.50;99.90
36444;DHT22;24692;45.642;13.806;2022-12-18T17:20:12;5.50;99.90
36444;DHT22;24692;45.642;13.806;2022-12-18T17:22:37;5.50;99.90
36444;DHT22;24692;45.642;13.806;2022-12-18T17:25:04;5.40;99.90
36444;DHT22;24692;45.642;13.806;2022-12-18T17:27:29;5.40;99.90
36444;DHT22;24692;45.642;13.806;2022-12-18T17:29:56;5.40;99.90
36444;DHT22;24692;45.642;13.806;2022-12-18T17:32:21;5.40;99.90
36444;DHT22;24692;45.642;13.806;2022-12-18T17:34:47;5.30;99.90
36444;DHT22;24692;45.642;13.806;2022-12-18T17:37:13;5.40;99.90
36444;DHT22;24692;45.642;13.806;2022-12-18T17:39:39;5.40;99.90
36444;DHT22;24692;45.642;13.806;2022-12-18T17:42:05;5.40;99.90
36444;DHT22;24692;45.642;13.806;2022-12-18T17:44:31;5.30;99.90
36444;DHT22;24692;45.642;13.806;2022-12-18T17:46:58;5.30;99.90
36444;DHT22;24692;45.642;13.806;2022-12-18T17:49:24;5.20;99.90
36444;DHT22;24692;45.642;13.806;2022-12-18T17:51:49;5.30;99.90
36444;DHT22;24692;45.642;13.806;2022-12-18T17:54:15;5.20;99.90